Rhapsody Of The Seas — C6UA2 — position and weather

sailwx.info

Track history (hours):
 
Tides and Currents Weather Stations Pressure Air Temp Water Temp Dewpoint Dewpoint Depression Visibility Wind Speed Wind Dir Waves Ship Positions

Rhapsody Of The Seas

Last reported at 2016-May-31 19:22 UTC. Time now 2016-Jun-01 03:41 UTC.
Position N 36°22' E 023°13'.

Type: Passenger vessel. MMSI: 311805000.

Date/timePositionNaut miles runAvg speedWind from/ knotsBaromVisibWave heightAir tempDewpointWater temp
2016-May-31 19:22N 36°22' E 023°13'1620.2
2016-May-31 18:33N 36°37' E 023°23'2020.1
2016-May-31 17:33N 36°55' E 023°33'2020.5
2016-May-31 16:33N 37°14' E 023°41'2019.7
2016-May-31 15:33N 37°34' E 023°43'1918.8
2016-May-31 14:33N 37°52' E 023°37'4 4.3
2016-May-31 13:33N 37°56' E 023°38'0 0.0
2016-May-31 12:33N 37°56' E 023°38'0 0.0
2016-May-31 11:33N 37°56' E 023°38'0 0.0
2016-May-31 10:33N 37°56' E 023°38'0 0.0
2016-May-31 09:33N 37°56' E 023°38'0 0.0
2016-May-31 08:33N 37°56' E 023°38'0 0.0
2016-May-31 07:33N 37°56' E 023°38'0 0.0
2016-May-31 06:33N 37°56' E 023°38'0 0.0
2016-May-31 04:33N 37°56' E 023°38'0 0.5
2016-May-31 03:33N 37°56' E 023°38'4 3.6
2016-May-31 02:34N 37°53' E 023°38'1313.1
2016-May-31 01:34N 37°41' E 023°46'1111.0
2016-May-31 00:34N 37°30' E 023°45'1110.5
2016-May-30 23:32N 37°21' E 023°51'1111.4
2016-May-30 22:33N 37°22' E 024°05'1212.2
2016-May-30 21:32N 37°29' E 024°18'1411.6
2016-May-30 20:22N 37°33' E 024°35'2413.1
2016-May-30 18:33N 37°31' E 025°04'12 5.5
2016-May-30 16:21N 37°27' E 025°19'1 0.9
2016-May-30 15:33N 37°27' E 025°18'2417.3
2016-May-30 14:09N 37°33' E 024°48'15 2.7
2016-May-30 08:33N 37°30' E 025°07'6 6.1
2016-May-30 07:33N 37°30' E 025°15'20 3.3
2016-May-30 01:29N 37°40' E 025°37'28 0.9
2016-May-28 19:03N 37°13' E 025°45'40 1.6
2016-May-27 18:33N 37°11' E 024°55'17 8.3
2016-May-27 16:33N 37°26' E 025°04'8 7.4
2016-May-27 15:31N 37°28' E 025°13'5 4.8
2016-May-27 14:32N 37°28' E 025°19'0 0.0
2016-May-27 13:29N 37°28' E 025°19'0 0.0
2016-May-27 12:32N 37°28' E 025°19'0 0.0
2016-May-27 11:32N 37°28' E 025°19'0 0.0
2016-May-27 10:32N 37°28' E 025°19'0 0.0
2016-May-27 09:29N 37°28' E 025°19'0 0.0
2016-May-27 08:32N 37°28' E 025°19'0 0.0
2016-May-27 07:08N 37°28' E 025°19'0 0.0
2016-May-27 06:29N 37°28' E 025°19'0 0.0
2016-May-27 05:32N 37°28' E 025°19'0 0.0
2016-May-27 04:32N 37°28' E 025°19'0 0.0
2016-May-27 03:33N 37°28' E 025°19'8 8.0
2016-May-27 02:33N 37°27' E 025°09'1110.5
2016-May-27 01:33N 37°20' E 024°59'1110.7
2016-May-27 00:33N 37°10' E 024°54'  
2016-May-23 19:34N 45°06' E 012°60'2019.8
2016-May-23 18:33N 45°19' E 012°38'1312.6
2016-May-23 17:34N 45°25' E 012°22'3 2.9
2016-May-23 16:32N 45°26' E 012°18'0 0.0
2016-May-23 15:32N 45°26' E 012°18'0 0.0
2016-May-23 14:32N 45°26' E 012°18'0 0.0
2016-May-23 13:32N 45°26' E 012°18'0 0.0
2016-May-23 12:32N 45°26' E 012°18'0 0.0
2016-May-23 11:32N 45°26' E 012°18'0 0.0
2016-May-23 10:32N 45°26' E 012°18'314 9.9
2016-May-22 03:00N 41°36' E 017°12'   330 / 251014.0 5.4 1.519.017.519.0
Track history (hours):
 
Tides and Currents Weather Stations Pressure Air Temp Water Temp Dewpoint Dewpoint Depression Visibility Wind Speed Wind Dir Waves Ship Positions

Rhapsody Of The Seas

Last reported at 2016-May-31 19:22 UTC. Time now 2016-Jun-01 03:41 UTC.
Position N 36°22' E 023°13'.

Type: Passenger vessel. MMSI: 311805000.

Date/timePositionNaut miles runAvg speedWind from/ knotsBaromVisibWave heightAir tempDewpointWater temp
2016-May-31 19:22N 36°22' E 023°13'1620.2
2016-May-31 18:33N 36°37' E 023°23'2020.1
2016-May-31 17:33N 36°55' E 023°33'2020.5
2016-May-31 16:33N 37°14' E 023°41'2019.7
2016-May-31 15:33N 37°34' E 023°43'1918.8
2016-May-31 14:33N 37°52' E 023°37'4 4.3
2016-May-31 13:33N 37°56' E 023°38'0 0.0
2016-May-31 12:33N 37°56' E 023°38'0 0.0
2016-May-31 11:33N 37°56' E 023°38'0 0.0
2016-May-31 10:33N 37°56' E 023°38'0 0.0
2016-May-31 09:33N 37°56' E 023°38'0 0.0
2016-May-31 08:33N 37°56' E 023°38'0 0.0
2016-May-31 07:33N 37°56' E 023°38'0 0.0
2016-May-31 06:33N 37°56' E 023°38'0 0.0
2016-May-31 04:33N 37°56' E 023°38'0 0.5
2016-May-31 03:33N 37°56' E 023°38'4 3.6
2016-May-31 02:34N 37°53' E 023°38'1313.1
2016-May-31 01:34N 37°41' E 023°46'1111.0
2016-May-31 00:34N 37°30' E 023°45'1110.5
2016-May-30 23:32N 37°21' E 023°51'1111.4
2016-May-30 22:33N 37°22' E 024°05'1212.2
2016-May-30 21:32N 37°29' E 024°18'1411.6
2016-May-30 20:22N 37°33' E 024°35'2413.1
2016-May-30 18:33N 37°31' E 025°04'12 5.5
2016-May-30 16:21N 37°27' E 025°19'1 0.9
2016-May-30 15:33N 37°27' E 025°18'2417.3
2016-May-30 14:09N 37°33' E 024°48'15 2.7
2016-May-30 08:33N 37°30' E 025°07'6 6.1
2016-May-30 07:33N 37°30' E 025°15'20 3.3
2016-May-30 01:29N 37°40' E 025°37'28 0.9
2016-May-28 19:03N 37°13' E 025°45'40 1.6
2016-May-27 18:33N 37°11' E 024°55'17 8.3
2016-May-27 16:33N 37°26' E 025°04'8 7.4
2016-May-27 15:31N 37°28' E 025°13'5 4.8
2016-May-27 14:32N 37°28' E 025°19'0 0.0
2016-May-27 13:29N 37°28' E 025°19'0 0.0
2016-May-27 12:32N 37°28' E 025°19'0 0.0
2016-May-27 11:32N 37°28' E 025°19'0 0.0
2016-May-27 10:32N 37°28' E 025°19'0 0.0
2016-May-27 09:29N 37°28' E 025°19'0 0.0
2016-May-27 08:32N 37°28' E 025°19'0 0.0
2016-May-27 07:08N 37°28' E 025°19'0 0.0
2016-May-27 06:29N 37°28' E 025°19'0 0.0
2016-May-27 05:32N 37°28' E 025°19'0 0.0
2016-May-27 04:32N 37°28' E 025°19'0 0.0
2016-May-27 03:33N 37°28' E 025°19'8 8.0
2016-May-27 02:33N 37°27' E 025°09'1110.5
2016-May-27 01:33N 37°20' E 024°59'1110.7
2016-May-27 00:33N 37°10' E 024°54'  
2016-May-23 19:34N 45°06' E 012°60'2019.8
2016-May-23 18:33N 45°19' E 012°38'1312.6
2016-May-23 17:34N 45°25' E 012°22'3 2.9
2016-May-23 16:32N 45°26' E 012°18'0 0.0
2016-May-23 15:32N 45°26' E 012°18'0 0.0
2016-May-23 14:32N 45°26' E 012°18'0 0.0
2016-May-23 13:32N 45°26' E 012°18'0 0.0
2016-May-23 12:32N 45°26' E 012°18'0 0.0
2016-May-23 11:32N 45°26' E 012°18'0 0.0
2016-May-23 10:32N 45°26' E 012°18'314 9.9
2016-May-22 03:00N 41°36' E 017°12'   330 / 251014.0 5.4 1.519.017.519.0

Dump ship's entire track history